Time;durP1;ratioP1;P1;durP2;ratioP2;P2;SDS_P1;SDS_P2;PMS_P1;PMS_P2;Temp;Humidity;BMP_temperature;BMP_pressure;BME280_temperature;BME280_humidity;BME280_pressure;Samples;Min_cycle;Max_cycle;Signal;HPM_P1;HPM_P2
2022/01/09 00:00:25;;;;;;;9.48;4.40;;;-0.40;99.90;;;;;;5013583;28;20075;-71
2022/01/09 00:02:52;;;;;;;10.75;4.70;;;-0.40;99.90;;;;;;5016401;28;20105;-71
2022/01/09 00:05:18;;;;;;;9.32;4.07;;;-0.40;99.90;;;;;;5014618;28;20030;-71
2022/01/09 00:07:46;;;;;;;7.75;4.35;;;-0.40;99.90;;;;;;5012336;28;20048;-71
2022/01/09 00:10:12;;;;;;;9.60;4.07;;;-0.30;99.90;;;;;;5015779;28;20040;-71
2022/01/09 00:12:38;;;;;;;7.80;4.65;;;-0.30;99.90;;;;;;5010883;28;20022;-71
2022/01/09 00:15:05;;;;;;;10.03;5.13;;;-0.30;99.90;;;;;;5016742;28;20025;-72
2022/01/09 00:17:31;;;;;;;7.45;4.82;;;-0.40;99.90;;;;;;5011345;28;20029;-71
2022/01/09 00:19:57;;;;;;;8.70;3.85;;;-0.40;99.90;;;;;;5014685;28;20126;-71
2022/01/09 00:22:47;;;;;;;7.60;4.03;;;-0.40;99.90;;;;;;5009696;28;20385;-72
2022/01/09 00:25:09;;;;;;;7.95;3.78;;;-0.40;99.90;;;;;;5013511;28;20045;-71
2022/01/09 00:27:36;;;;;;;8.57;4.30;;;-0.40;99.90;;;;;;5011055;28;20658;-71
2022/01/09 00:30:07;;;;;;;6.72;4.07;;;-0.50;99.90;;;;;;5015425;28;20090;-71
2022/01/09 00:32:33;;;;;;;6.95;4.22;;;-0.40;99.90;;;;;;5011770;28;20154;-71
2022/01/09 00:35:00;;;;;;;6.53;4.10;;;-0.40;99.90;;;;;;5015046;28;20021;-71
2022/01/09 00:37:26;;;;;;;7.85;3.70;;;-0.50;99.90;;;;;;5011067;28;20047;-71
2022/01/09 00:39:54;;;;;;;7.03;3.60;;;-0.50;99.90;;;;;;5023786;28;20391;-71
2022/01/09 00:42:20;;;;;;;7.28;3.63;;;-0.50;99.90;;;;;;5010601;28;20052;-72
2022/01/09 00:44:46;;;;;;;6.82;4.22;;;-0.50;99.90;;;;;;5015376;28;20060;-71
2022/01/09 00:47:12;;;;;;;6.50;3.85;;;-0.50;99.90;;;;;;5014677;28;20052;-71
2022/01/09 00:49:38;;;;;;;11.20;4.43;;;-0.50;99.90;;;;;;5011416;28;20087;-71
2022/01/09 00:52:04;;;;;;;9.07;4.43;;;-0.50;99.90;;;;;;5013981;28;20676;-71
2022/01/09 00:54:30;;;;;;;6.90;4.67;;;-0.60;99.90;;;;;;5010500;28;20025;-71
2022/01/09 00:56:55;;;;;;;8.07;4.13;;;-0.60;99.90;;;;;;5014486;28;20260;-72
2022/01/09 00:59:21;;;;;;;9.10;4.40;;;-0.60;99.90;;;;;;5011923;28;20025;-71
2022/01/09 01:01:48;;;;;;;5.17;3.77;;;-0.60;99.90;;;;;;5015130;28;20022;-71
2022/01/09 01:04:17;;;;;;;8.27;4.95;;;-0.60;99.90;;;;;;5014773;28;20057;-71
2022/01/09 01:06:42;;;;;;;8.32;3.88;;;-0.60;99.90;;;;;;5008932;28;20140;-71
2022/01/09 01:09:08;;;;;;;7.20;3.87;;;-0.60;99.90;;;;;;5015084;28;20116;-71
2022/01/09 01:11:34;;;;;;;6.60;3.83;;;-0.70;99.90;;;;;;5011734;28;20041;-71
2022/01/09 01:14:00;;;;;;;7.07;4.03;;;-0.70;99.90;;;;;;5014746;28;20014;-71
2022/01/09 01:16:25;;;;;;;7.57;4.37;;;-0.70;99.90;;;;;;5010450;28;20021;-71
2022/01/09 01:18:54;;;;;;;10.17;4.63;;;-0.80;99.90;;;;;;5016020;28;20490;-71
2022/01/09 01:21:23;;;;;;;7.07;4.30;;;-0.80;99.90;;;;;;5013519;28;20534;-71
2022/01/09 01:23:51;;;;;;;11.45;3.83;;;-0.80;99.90;;;;;;5016564;28;20077;-71
2022/01/09 01:26:18;;;;;;;7.63;4.28;;;-0.90;99.90;;;;;;5014763;28;20029;-71
2022/01/09 01:28:44;;;;;;;7.03;4.15;;;-0.90;99.90;;;;;;5011603;28;20174;-71
2022/01/09 01:31:11;;;;;;;7.00;4.13;;;-0.90;99.90;;;;;;5012978;28;20108;-71
2022/01/09 01:33:38;;;;;;;6.38;4.15;;;-0.90;99.90;;;;;;5008459;28;20017;-71
2022/01/09 01:36:04;;;;;;;;;;;-0.90;99.90;;;;;;5013758;28;20024;-71
2022/01/09 01:38:31;;;;;;;7.78;4.53;;;-0.90;99.90;;;;;;5008648;28;20366;-71
2022/01/09 01:40:58;;;;;;;;;;;-1.00;99.90;;;;;;5015595;28;20515;-71
2022/01/09 01:43:25;;;;;;;11.23;5.35;;;-1.00;99.90;;;;;;5010555;28;20565;-71
2022/01/09 01:45:51;;;;;;;11.05;4.68;;;-1.00;99.90;;;;;;5014751;28;20504;-71
2022/01/09 01:48:17;;;;;;;8.77;4.67;;;-1.00;99.90;;;;;;5013676;28;20025;-71
2022/01/09 01:50:43;;;;;;;9.83;5.00;;;-1.00;99.90;;;;;;5009584;28;20033;-71
2022/01/09 01:53:14;;;;;;;9.85;5.28;;;-1.00;99.90;;;;;;5012998;28;20042;-71
2022/01/09 01:55:41;;;;;;;11.40;5.75;;;-1.00;99.90;;;;;;5009998;28;20091;-71
2022/01/09 01:58:13;;;;;;;10.32;5.68;;;-1.10;99.90;;;;;;5014069;28;20018;-71
2022/01/09 02:00:40;;;;;;;10.88;5.93;;;-1.00;99.90;;;;;;5009420;28;20036;-71
2022/01/09 02:03:06;;;;;;;11.02;5.47;;;-1.00;99.90;;;;;;5014749;28;20018;-71
2022/01/09 02:05:32;;;;;;;12.97;5.43;;;-1.10;99.90;;;;;;5007950;28;20705;-71
2022/01/09 02:08:00;;;;;;;15.10;6.23;;;-1.00;99.90;;;;;;5011886;28;20021;-71
2022/01/09 02:10:26;;;;;;;9.32;5.80;;;-1.00;99.90;;;;;;5009718;28;20087;-72
2022/01/09 02:12:55;;;;;;;8.80;5.50;;;-1.00;99.90;;;;;;5014062;28;20021;-71
2022/01/09 02:15:38;;;;;;;12.43;5.90;;;-1.00;99.90;;;;;;5010166;28;20262;-71
2022/01/09 02:18:13;;;;;;;10.93;6.35;;;-1.00;99.90;;;;;;5013582;28;20025;-71
2022/01/09 02:20:40;;;;;;;13.13;6.57;;;-1.00;99.90;;;;;;5007845;28;20493;-71
2022/01/09 02:23:09;;;;;;;13.88;6.50;;;-1.10;99.90;;;;;;5014424;28;20023;-71
2022/01/09 02:25:36;;;;;;;14.15;7.18;;;-1.10;99.90;;;;;;5009027;28;20033;-71
2022/01/09 02:28:02;;;;;;;14.18;6.80;;;-1.10;99.90;;;;;;5012174;28;20013;-71
2022/01/09 02:30:32;;;;;;;12.68;6.65;;;-1.10;99.90;;;;;;5008840;28;20044;-71
2022/01/09 02:33:02;;;;;;;15.55;8.63;;;-1.10;99.90;;;;;;5012235;28;20467;-71
2022/01/09 02:35:29;;;;;;;16.77;8.57;;;-1.10;99.90;;;;;;5010680;28;20025;-72
2022/01/09 02:37:55;;;;;;;14.75;7.57;;;-1.20;99.90;;;;;;5011180;28;20025;-71
2022/01/09 02:40:22;;;;;;;14.10;6.93;;;-1.20;99.90;;;;;;5010679;28;20033;-72
2022/01/09 02:42:50;;;;;;;11.77;6.53;;;-1.30;99.90;;;;;;5013113;28;20076;-71
2022/01/09 02:45:20;;;;;;;15.60;7.63;;;-1.20;99.90;;;;;;5013584;28;20630;-71
2022/01/09 02:47:46;;;;;;;15.18;7.93;;;-1.20;99.90;;;;;;5009602;28;20056;-71
2022/01/09 02:50:28;;;;;;;17.48;7.72;;;-1.30;99.90;;;;;;5013288;28;20029;-71
2022/01/09 02:52:59;;;;;;;16.10;7.40;;;-1.30;99.90;;;;;;5013198;28;20017;-71
2022/01/09 02:55:26;;;;;;;13.77;7.85;;;-1.30;99.90;;;;;;5005654;28;20021;-71
2022/01/09 02:57:55;;;;;;;16.13;8.73;;;-1.40;99.90;;;;;;5010139;28;20020;-70
2022/01/09 03:00:30;;;;;;;15.95;8.52;;;-1.40;99.90;;;;;;5008706;28;20033;-71
2022/01/09 03:02:58;;;;;;;17.25;8.63;;;-1.50;99.90;;;;;;5013529;28;20021;-70
2022/01/09 03:05:24;;;;;;;17.85;8.43;;;-1.60;99.90;;;;;;5008477;28;20140;-71
2022/01/09 03:07:52;;;;;;;19.77;9.80;;;-1.60;99.90;;;;;;5013018;28;20087;-70
2022/01/09 03:10:19;;;;;;;19.17;8.65;;;-1.60;99.90;;;;;;5015122;28;21484;-70
2022/01/09 03:12:46;;;;;;;17.85;8.95;;;-1.60;99.90;;;;;;5013927;28;20032;-70
2022/01/09 03:15:12;;;;;;;16.55;9.40;;;-1.60;99.90;;;;;;5017401;28;20833;-70
2022/01/09 03:17:39;;;;;;;17.80;9.43;;;-1.60;99.90;;;;;;5012577;28;20032;-71
2022/01/09 03:20:07;;;;;;;15.97;8.93;;;-1.50;99.90;;;;;;5017214;28;20125;-71
2022/01/09 03:22:33;;;;;;;17.95;9.38;;;-1.50;99.90;;;;;;5012077;28;20268;-71
2022/01/09 03:24:58;;;;;;;19.20;9.77;;;-1.50;99.90;;;;;;5015207;28;20028;-71
2022/01/09 03:27:24;;;;;;;14.47;8.80;;;-1.40;99.90;;;;;;5012360;28;20783;-70
2022/01/09 03:29:50;;;;;;;21.37;9.60;;;-1.40;99.90;;;;;;5015619;28;20056;-71
2022/01/09 03:32:16;;;;;;;16.17;8.77;;;-1.50;99.90;;;;;;5016187;28;20040;-70
2022/01/09 03:34:41;;;;;;;18.80;9.87;;;-1.50;99.90;;;;;;5013210;28;20109;-70
2022/01/09 03:37:07;;;;;;;18.80;9.27;;;-1.60;99.90;;;;;;5016035;28;20485;-71
2022/01/09 03:39:33;;;;;;;19.03;9.60;;;-1.60;99.90;;;;;;5009705;28;20017;-71
2022/01/09 03:42:00;;;;;;;18.73;9.88;;;-1.60;99.90;;;;;;5016418;28;20036;-70
2022/01/09 03:44:27;;;;;;;;;;;-1.60;99.90;;;;;;5014199;28;20026;-72
2022/01/09 03:46:54;;;;;;;21.48;9.75;;;-1.60;99.90;;;;;;5012211;28;20773;-71
2022/01/09 03:49:21;;;;;;;18.77;9.93;;;-1.60;99.90;;;;;;5014632;28;20535;-71
2022/01/09 03:51:50;;;;;;;20.40;10.20;;;-1.60;99.90;;;;;;5016330;28;20049;-70
2022/01/09 03:54:18;;;;;;;20.40;10.10;;;-1.60;99.90;;;;;;5014945;28;20026;-71
2022/01/09 03:56:43;;;;;;;18.77;10.68;;;-1.60;99.90;;;;;;5014732;28;21023;-71
2022/01/09 03:59:09;;;;;;;18.53;9.67;;;-1.70;99.90;;;;;;5011219;28;20017;-71
2022/01/09 04:01:35;;;;;;;19.80;11.47;;;-1.70;99.90;;;;;;5016210;28;20026;-71
2022/01/09 04:04:00;;;;;;;17.10;10.77;;;-1.70;99.90;;;;;;5011203;28;20417;-71
2022/01/09 04:06:26;;;;;;;20.33;11.20;;;-1.80;99.90;;;;;;5015748;28;20402;-70
2022/01/09 04:08:52;;;;;;;21.47;11.63;;;-1.80;99.90;;;;;;5012762;28;20388;-70
2022/01/09 04:11:26;;;;;;;20.45;10.57;;;-1.80;99.90;;;;;;5015181;28;20391;-71
2022/01/09 04:13:52;;;;;;;25.73;11.60;;;-1.70;99.90;;;;;;5013094;28;20088;-71
2022/01/09 04:16:19;;;;;;;19.58;10.68;;;-1.70;99.90;;;;;;5014733;28;20032;-71
2022/01/09 04:18:45;;;;;;;;;;;-1.70;99.90;;;;;;5016371;28;21990;-70
2022/01/09 04:21:11;;;;;;;24.95;11.15;;;-1.70;99.90;;;;;;5010364;28;20222;-70
2022/01/09 04:23:37;;;;;;;21.97;10.97;;;-1.70;99.90;;;;;;5016763;28;20112;-71
2022/01/09 04:26:04;;;;;;;21.10;11.00;;;-1.70;99.90;;;;;;5011635;28;20029;-71
2022/01/09 04:28:30;;;;;;;;;;;-1.70;99.90;;;;;;5013041;28;20034;-71
2022/01/09 04:30:56;;;;;;;19.70;10.35;;;-1.70;99.90;;;;;;5010289;28;19913;-71
2022/01/09 04:33:22;;;;;;;22.48;11.35;;;-1.70;99.90;;;;;;5014639;28;20022;-71
2022/01/09 04:35:48;;;;;;;21.63;11.13;;;-1.70;99.90;;;;;;5015825;28;20033;-70
2022/01/09 04:38:13;;;;;;;21.27;11.10;;;-1.60;99.90;;;;;;5011011;28;20173;-71
2022/01/09 04:40:39;;;;;;;19.10;11.07;;;-1.60;99.90;;;;;;5016408;28;20025;-71
2022/01/09 04:43:08;;;;;;;20.90;10.98;;;-1.60;99.90;;;;;;5009177;28;20076;-71
2022/01/09 04:45:34;;;;;;;23.15;11.48;;;-1.50;99.90;;;;;;5012663;28;20052;-70
2022/01/09 04:48:03;;;;;;;17.07;9.97;;;-1.60;99.90;;;;;;5011104;28;20065;-71
2022/01/09 04:50:32;;;;;;;19.33;10.40;;;-1.50;99.90;;;;;;5014168;28;20025;-71
2022/01/09 04:53:05;;;;;;;21.85;11.23;;;-1.50;99.90;;;;;;5012045;28;20029;-71
2022/01/09 04:55:38;;;;;;;18.90;10.45;;;-1.50;99.90;;;;;;5015537;28;20028;-71
2022/01/09 04:58:05;;;;;;;18.92;11.05;;;-1.60;99.90;;;;;;5009246;28;20026;-71
2022/01/09 05:00:31;;;;;;;;;;;-1.50;99.90;;;;;;5014483;28;20141;-71
2022/01/09 05:02:57;;;;;;;20.33;11.23;;;-1.50;99.90;;;;;;5011915;28;19960;-72
2022/01/09 05:05:23;;;;;;;23.57;12.57;;;-1.50;99.90;;;;;;5014190;28;20513;-71
2022/01/09 05:07:49;;;;;;;23.73;12.07;;;-1.60;99.90;;;;;;5009925;28;20052;-71
2022/01/09 05:10:15;;;;;;;21.03;11.80;;;-1.60;99.90;;;;;;5008601;28;20478;-71
2022/01/09 05:12:41;;;;;;;20.80;10.97;;;-1.60;99.90;;;;;;5013994;28;20068;-72
2022/01/09 05:15:08;;;;;;;22.23;12.23;;;-1.60;99.90;;;;;;5010856;28;20117;-71
2022/01/09 05:17:34;;;;;;;24.08;11.57;;;-1.60;99.90;;;;;;5012715;28;20016;-70
2022/01/09 05:20:00;;;;;;;19.05;11.75;;;-1.60;99.90;;;;;;5010890;28;20136;-71
2022/01/09 05:22:29;;;;;;;20.57;10.43;;;-1.60;99.90;;;;;;5014775;28;20056;-71
2022/01/09 05:24:58;;;;;;;21.30;12.75;;;-1.60;99.90;;;;;;5010308;28;20034;-71
2022/01/09 05:27:25;;;;;;;18.17;10.50;;;-1.60;99.90;;;;;;5014642;28;20017;-72
2022/01/09 05:29:51;;;;;;;21.48;11.52;;;-1.60;99.90;;;;;;5011798;28;20036;-71
2022/01/09 05:32:17;;;;;;;22.27;11.27;;;-1.60;99.90;;;;;;5008334;28;20029;-70
2022/01/09 05:34:43;;;;;;;18.08;10.05;;;-1.60;99.90;;;;;;5011593;28;20057;-71
2022/01/09 05:37:09;;;;;;;21.40;11.47;;;-1.70;99.90;;;;;;5009176;28;20514;-70
2022/01/09 05:39:35;;;;;;;19.20;10.07;;;-1.70;99.90;;;;;;5014498;28;20029;-70
2022/01/09 05:42:04;;;;;;;18.40;9.43;;;-1.70;99.90;;;;;;5010227;28;20041;-71
2022/01/09 05:44:31;;;;;;;20.48;11.00;;;-1.70;99.90;;;;;;5015092;28;20037;-71
2022/01/09 05:46:59;;;;;;;19.90;11.00;;;-1.70;99.90;;;;;;5010002;28;20022;-70
2022/01/09 05:49:25;;;;;;;21.30;10.65;;;-1.70;99.90;;;;;;5012986;28;20037;-71
2022/01/09 05:51:51;;;;;;;21.20;11.03;;;-1.70;99.90;;;;;;5014703;28;20017;-71
2022/01/09 05:54:17;;;;;;;18.00;9.77;;;-1.60;99.90;;;;;;5008397;28;20088;-71
2022/01/09 05:56:45;;;;;;;18.35;10.32;;;-1.60;99.90;;;;;;5013805;28;20103;-71
2022/01/09 05:59:11;;;;;;;19.85;11.30;;;-1.60;99.90;;;;;;5010115;28;20112;-70
2022/01/09 06:01:36;;;;;;;21.23;10.77;;;-1.70;99.90;;;;;;5012681;28;20112;-71
2022/01/09 06:04:05;;;;;;;20.17;11.00;;;-1.70;99.90;;;;;;5009611;28;20462;-71
2022/01/09 06:06:31;;;;;;;18.75;10.75;;;-1.70;99.90;;;;;;5013496;28;20033;-71
2022/01/09 06:08:57;;;;;;;22.05;11.00;;;-1.80;99.90;;;;;;5009874;28;20441;-71
2022/01/09 06:11:26;;;;;;;20.83;11.63;;;-1.90;99.90;;;;;;5014094;28;20033;-71
2022/01/09 06:13:51;;;;;;;21.15;11.75;;;-1.80;99.90;;;;;;5012711;28;20359;-70
2022/01/09 06:16:19;;;;;;;24.63;11.37;;;-1.80;99.90;;;;;;5009142;28;20032;-71
2022/01/09 06:18:47;;;;;;;18.92;11.35;;;-1.90;99.90;;;;;;5013929;28;20431;-71
2022/01/09 06:21:14;;;;;;;20.90;10.90;;;-1.80;99.90;;;;;;5009947;28;20702;-71
2022/01/09 06:23:39;;;;;;;19.88;11.15;;;-1.80;99.90;;;;;;5013949;28;20033;-71
2022/01/09 06:26:05;;;;;;;22.43;11.37;;;-1.90;99.90;;;;;;5010028;28;20487;-71
2022/01/09 06:28:31;;;;;;;22.30;11.57;;;-1.90;99.90;;;;;;5013369;28;20021;-71
2022/01/09 06:30:57;;;;;;;20.17;11.13;;;-1.90;99.90;;;;;;5009733;28;20025;-71
2022/01/09 06:33:23;;;;;;;23.67;11.63;;;-1.90;99.90;;;;;;5014173;28;20022;-70
2022/01/09 06:35:50;;;;;;;21.13;10.90;;;-1.90;99.90;;;;;;5012755;28;20029;-71
2022/01/09 06:38:15;;;;;;;22.67;10.77;;;-1.90;99.90;;;;;;5007821;28;20532;-71
2022/01/09 06:40:41;;;;;;;22.13;10.87;;;-2.00;99.90;;;;;;5013587;28;20060;-70
2022/01/09 06:43:07;;;;;;;21.57;10.77;;;-2.00;99.90;;;;;;5012960;28;20014;-70
2022/01/09 06:45:33;;;;;;;25.58;11.68;;;-2.10;99.90;;;;;;5018385;28;20179;-71
2022/01/09 06:47:59;;;;;;;21.07;11.10;;;-2.10;99.90;;;;;;5011486;28;20068;-71
2022/01/09 06:50:26;;;;;;;21.40;10.23;;;-1.90;99.90;;;;;;5016637;28;20038;-71
2022/01/09 06:52:51;;;;;;;;;;;-1.80;99.90;;;;;;5018770;28;20022;-71
2022/01/09 06:55:17;;;;;;;17.90;10.57;;;-1.50;99.90;;;;;;5013291;28;19915;-71
2022/01/09 06:57:43;;;;;;;19.53;10.50;;;-1.30;99.90;;;;;;5016784;28;20036;-71
2022/01/09 07:00:10;;;;;;;22.17;10.83;;;-1.10;99.90;;;;;;5012441;28;20060;-71
2022/01/09 07:02:36;;;;;;;19.88;10.43;;;-0.90;99.90;;;;;;5017806;28;20032;-71
2022/01/09 07:05:03;;;;;;;19.20;10.63;;;-1.00;99.90;;;;;;5013133;28;20025;-72
2022/01/09 07:07:28;;;;;;;19.75;10.65;;;-1.00;99.90;;;;;;5014932;28;20028;-71
2022/01/09 07:09:58;;;;;;;21.13;11.17;;;-1.00;99.90;;;;;;5016818;28;20033;-71
2022/01/09 07:12:25;;;;;;;18.63;10.55;;;-0.80;99.90;;;;;;5018989;28;20382;-71
2022/01/09 07:14:51;;;;;;;18.98;10.50;;;-0.40;99.90;;;;;;5017320;28;20421;-71
2022/01/09 07:17:16;;;;;;;20.37;10.73;;;-0.10;99.70;;;;;;5012524;28;20025;-71
2022/01/09 07:19:42;;;;;;;20.53;10.60;;;0.10;99.00;;;;;;5016983;28;20025;-70
2022/01/09 07:22:09;;;;;;;19.70;10.33;;;0.10;98.80;;;;;;5014051;28;20358;-71
2022/01/09 07:24:35;;;;;;;17.67;10.30;;;0.10;98.80;;;;;;5018200;28;20548;-71
2022/01/09 07:27:02;;;;;;;20.00;10.20;;;0.10;98.50;;;;;;5012545;28;20051;-72
2022/01/09 07:29:27;;;;;;;21.00;10.98;;;0.10;98.00;;;;;;5016495;28;20458;-71
2022/01/09 07:31:53;;;;;;;19.27;10.60;;;0.10;97.90;;;;;;5016202;28;20022;-71
2022/01/09 07:34:21;;;;;;;18.97;11.27;;;0.00;97.90;;;;;;5011475;28;20021;-71
2022/01/09 07:36:48;;;;;;;20.90;10.75;;;-0.10;98.60;;;;;;5015591;28;20017;-71
2022/01/09 07:39:14;;;;;;;19.65;10.07;;;-0.30;98.90;;;;;;5012708;28;20032;-71
2022/01/09 07:41:41;;;;;;;16.65;10.48;;;-0.30;99.90;;;;;;5014366;28;20511;-72
2022/01/09 07:44:09;;;;;;;22.25;12.07;;;-0.40;99.90;;;;;;5009115;28;20086;-72
2022/01/09 07:46:35;;;;;;;19.52;11.43;;;-0.40;99.90;;;;;;5013586;28;20026;-71
2022/01/09 07:49:02;;;;;;;19.23;11.03;;;-0.40;99.90;;;;;;5010083;28;20493;-71
2022/01/09 07:51:28;;;;;;;20.13;11.50;;;-0.50;99.90;;;;;;5014623;28;20036;-71
2022/01/09 07:53:53;;;;;;;22.07;11.67;;;-0.50;99.90;;;;;;5014534;28;20033;-72
2022/01/09 07:56:20;;;;;;;15.93;10.67;;;-0.40;99.90;;;;;;5010113;28;20386;-71
2022/01/09 07:58:45;;;;;;;19.77;10.63;;;-0.40;99.90;;;;;;5015131;28;20030;-71
2022/01/09 08:01:11;;;;;;;22.97;12.60;;;-0.40;99.90;;;;;;5010586;28;20483;-71
2022/01/09 08:03:37;;;;;;;21.97;12.07;;;-0.40;99.90;;;;;;5012780;28;20430;-72
2022/01/09 08:06:03;;;;;;;21.17;11.73;;;-0.30;99.90;;;;;;5009108;28;20627;-71
2022/01/09 08:08:29;;;;;;;21.77;11.97;;;-0.40;99.90;;;;;;5012817;28;20053;-72
2022/01/09 08:10:55;;;;;;;23.60;12.33;;;-0.40;99.90;;;;;;5013911;28;20899;-71
2022/01/09 08:13:21;;;;;;;18.73;11.57;;;-0.40;99.90;;;;;;5011336;28;20029;-71
2022/01/09 08:15:47;;;;;;;20.03;11.57;;;-0.40;99.90;;;;;;5017380;28;20018;-71
2022/01/09 08:18:13;;;;;;;28.38;13.05;;;-0.40;99.90;;;;;;5013539;28;20529;-71
2022/01/09 08:20:39;;;;;;;23.55;12.73;;;-0.40;99.90;;;;;;5016934;28;20091;-72
2022/01/09 08:23:05;;;;;;;20.17;12.13;;;-0.40;99.90;;;;;;5013343;28;20025;-71
2022/01/09 08:25:32;;;;;;;26.13;12.90;;;-0.40;99.90;;;;;;5016510;28;20029;-71
2022/01/09 08:27:58;;;;;;;23.88;13.80;;;-0.40;99.90;;;;;;5013189;28;20048;-71
2022/01/09 08:30:24;;;;;;;23.43;13.10;;;-0.40;99.90;;;;;;5017016;28;20021;-71
2022/01/09 08:32:52;;;;;;;22.17;12.63;;;-0.30;99.90;;;;;;5016258;28;21089;-71
2022/01/09 08:35:19;;;;;;;22.63;13.10;;;-0.20;99.90;;;;;;5010472;28;20644;-71
2022/01/09 08:37:45;;;;;;;23.50;12.10;;;-0.20;99.90;;;;;;5014551;28;20026;-72
2022/01/09 08:40:19;;;;;;;24.93;12.47;;;-0.30;99.90;;;;;;5011882;28;20036;-71
2022/01/09 08:42:46;;;;;;;23.20;13.23;;;-0.30;99.90;;;;;;5014707;28;20026;-71
2022/01/09 08:45:13;;;;;;;23.13;13.55;;;-0.30;99.90;;;;;;5010512;28;20120;-71
2022/01/09 08:47:39;;;;;;;24.42;13.13;;;-0.30;99.90;;;;;;5015342;28;20021;-71
2022/01/09 08:50:07;;;;;;;25.23;13.53;;;-0.30;99.90;;;;;;5010487;28;20026;-71
2022/01/09 08:52:33;;;;;;;26.52;13.70;;;-0.20;99.90;;;;;;5014832;28;20107;-71
2022/01/09 08:54:59;;;;;;;29.50;15.10;;;-0.30;99.90;;;;;;5011594;28;20459;-71
2022/01/09 08:57:26;;;;;;;24.35;13.55;;;-0.40;99.90;;;;;;5014920;28;20037;-71
2022/01/09 08:59:53;;;;;;;25.63;14.18;;;-0.40;99.90;;;;;;5015825;28;20075;-71
2022/01/09 09:02:19;;;;;;;25.52;13.90;;;-0.40;99.90;;;;;;5012128;28;20318;-71
2022/01/09 09:04:46;;;;;;;27.10;14.75;;;-0.40;99.90;;;;;;5015712;28;20032;-71
2022/01/09 09:07:12;;;;;;;30.08;15.07;;;-0.40;99.90;;;;;;5010912;28;20108;-71
2022/01/09 09:09:39;;;;;;;32.83;15.20;;;-0.50;99.90;;;;;;5013823;28;20036;-71
2022/01/09 09:12:05;;;;;;;29.25;15.10;;;-0.50;99.90;;;;;;5009697;28;20075;-71
2022/01/09 09:14:31;;;;;;;27.70;15.33;;;-0.50;99.90;;;;;;5014300;28;20545;-71
2022/01/09 09:16:56;;;;;;;27.00;14.97;;;-0.40;99.90;;;;;;5013564;28;20021;-71
2022/01/09 09:19:22;;;;;;;27.53;15.33;;;-0.40;99.90;;;;;;5011278;28;20409;-71
2022/01/09 09:21:48;;;;;;;27.20;14.93;;;-0.30;99.90;;;;;;5015708;28;20390;-71
2022/01/09 09:24:14;;;;;;;30.30;13.57;;;-0.20;99.90;;;;;;5011001;28;21134;-70
2022/01/09 09:26:41;;;;;;;34.73;16.53;;;-0.20;99.90;;;;;;5014610;28;20010;-70
2022/01/09 09:29:07;;;;;;;27.90;15.43;;;-0.10;99.90;;;;;;5010704;28;20516;-71
2022/01/09 09:31:34;;;;;;;27.77;15.37;;;-0.10;99.90;;;;;;5015812;28;20025;-71
2022/01/09 09:34:00;;;;;;;27.83;14.98;;;0.00;99.90;;;;;;5010013;28;20471;-70
2022/01/09 09:36:27;;;;;;;30.33;15.43;;;0.10;99.90;;;;;;5012497;28;20026;-70
2022/01/09 09:38:54;;;;;;;30.00;15.07;;;0.10;99.90;;;;;;5014535;28;20026;-71
2022/01/09 09:41:25;;;;;;;;;;;0.00;99.90;;;;;;5011225;28;20053;-71
2022/01/09 09:43:52;;;;;;;25.85;14.82;;;0.10;99.90;;;;;;5015161;28;19994;-71
2022/01/09 09:46:24;;;;;;;28.55;15.48;;;0.10;99.90;;;;;;5010595;28;20031;-71
2022/01/09 09:48:51;;;;;;;24.98;14.90;;;0.10;99.90;;;;;;5014678;28;20101;-71
2022/01/09 09:51:18;;;;;;;26.50;14.20;;;0.20;99.90;;;;;;5010518;28;20036;-71
2022/01/09 09:53:43;;;;;;;28.75;15.15;;;0.30;99.90;;;;;;5013283;28;20028;-71
2022/01/09 09:56:09;;;;;;;30.07;15.97;;;0.30;99.90;;;;;;5010146;28;20402;-70
2022/01/09 09:58:39;;;;;;;22.80;13.80;;;0.30;99.90;;;;;;5013760;28;20462;-71
2022/01/09 10:01:08;;;;;;;25.40;15.15;;;0.20;99.90;;;;;;5007932;28;20396;-71
2022/01/09 10:03:34;;;;;;;26.63;14.55;;;0.10;99.90;;;;;;5014896;28;21433;-70
2022/01/09 10:06:01;;;;;;;24.83;15.60;;;0.10;99.90;;;;;;5010605;28;20493;-70
2022/01/09 10:08:38;;;;;;;27.98;15.55;;;0.20;99.90;;;;;;5013081;28;20061;-71
2022/01/09 10:11:18;;;;;;;28.63;16.20;;;0.30;99.90;;;;;;5007448;28;20121;-71
2022/01/09 10:13:45;;;;;;;29.77;15.27;;;0.30;99.90;;;;;;5013228;28;20045;-71
2022/01/09 10:16:14;;;;;;;29.13;14.90;;;0.40;99.90;;;;;;5010076;28;20435;-71
2022/01/09 10:18:45;;;;;;;25.25;14.43;;;0.60;99.90;;;;;;5007023;28;20093;-70
2022/01/09 10:21:20;;;;;;;26.40;14.38;;;0.60;99.90;;;;;;5012997;28;20104;-71
2022/01/09 10:24:06;;;;;;;23.98;13.80;;;0.70;99.90;;;;;;5010529;28;20545;-70
2022/01/09 10:26:35;;;;;;;29.20;14.73;;;0.70;99.90;;;;;;5010576;28;20049;-71
2022/01/09 10:29:04;;;;;;;23.95;13.07;;;0.60;99.90;;;;;;5014452;28;20022;-71
2022/01/09 10:31:30;;;;;;;27.08;14.05;;;0.50;99.90;;;;;;5010477;28;20025;-70
2022/01/09 10:33:56;;;;;;;23.83;13.30;;;0.60;99.90;;;;;;5013811;28;20478;-70
2022/01/09 10:36:35;;;;;;;30.05;16.17;;;0.50;99.90;;;;;;5014021;28;20109;-71
2022/01/09 10:39:13;;;;;;;26.35;13.93;;;0.60;99.90;;;;;;5011537;28;20017;-71
2022/01/09 10:41:56;;;;;;;25.35;14.00;;;0.80;99.90;;;;;;5011845;28;20029;-71
2022/01/09 10:44:32;;;;;;;24.60;13.30;;;0.80;99.90;;;;;;5014177;28;20055;-71
2022/01/09 10:47:12;;;;;;;27.45;14.07;;;0.80;99.90;;;;;;5012610;28;20873;-71
2022/01/09 10:49:49;;;;;;;29.45;13.45;;;1.00;99.90;;;;;;5007921;28;20030;-70
2022/01/09 10:52:29;;;;;;;;;;;1.00;99.90;;;;;;5014481;28;20100;-72
2022/01/09 10:54:57;;;;;;;25.17;13.07;;;1.00;99.90;;;;;;5014041;28;19909;-71
2022/01/09 10:57:26;;;;;;;26.67;14.77;;;1.00;99.50;;;;;;5013000;28;20041;-71
2022/01/09 10:59:53;;;;;;;25.35;13.73;;;1.00;99.60;;;;;;5009250;28;20029;-71
2022/01/09 11:02:20;;;;;;;22.23;13.07;;;1.00;99.30;;;;;;5014036;28;20044;-71
2022/01/09 11:04:49;;;;;;;26.20;13.45;;;1.10;99.70;;;;;;5008240;28;20034;-71
2022/01/09 11:07:16;;;;;;;23.10;12.73;;;1.10;98.90;;;;;;5012691;28;20034;-71
2022/01/09 11:09:49;;;;;;;22.70;12.70;;;1.10;98.20;;;;;;5009494;28;20128;-71
2022/01/09 11:12:17;;;;;;;30.80;14.25;;;1.10;98.70;;;;;;5014554;28;20068;-72
2022/01/09 11:14:44;;;;;;;23.02;13.23;;;1.10;99.00;;;;;;5009593;28;20036;-71
2022/01/09 11:17:11;;;;;;;26.27;13.60;;;1.00;98.40;;;;;;5012008;28;20414;-71
2022/01/09 11:19:37;;;;;;;24.50;13.82;;;1.00;98.50;;;;;;5009289;28;20052;-71
2022/01/09 11:22:07;;;;;;;;;;;0.90;98.90;;;;;;5014884;28;20709;-71
2022/01/09 11:25:08;;;;;;;24.35;13.52;;;0.90;99.30;;;;;;5010615;28;19925;-72
2022/01/09 11:27:51;;;;;;;23.15;13.45;;;0.90;99.70;;;;;;5004624;28;20288;-72
2022/01/09 11:30:19;;;;;;;28.80;15.30;;;1.00;99.70;;;;;;5016409;28;20060;-71
2022/01/09 11:33:06;;;;;;;26.08;13.80;;;0.90;99.60;;;;;;5013732;28;20021;-71
2022/01/09 11:35:46;;;;;;;26.88;15.23;;;1.00;99.80;;;;;;5011142;28;20096;-71
2022/01/09 11:38:45;;;;;;;25.40;14.50;;;1.10;99.70;;;;;;5014461;28;20028;-71
2022/01/09 11:41:26;;;;;;;22.25;11.70;;;1.20;99.50;;;;;;5015817;28;20079;-71
2022/01/09 11:43:51;;;;;;;20.50;12.43;;;1.30;98.70;;;;;;5013038;28;20033;-71
2022/01/09 11:46:17;;;;;;;23.00;11.73;;;1.30;98.80;;;;;;5016395;28;20028;-72
2022/01/09 11:48:52;;;;;;;23.10;12.10;;;1.30;98.50;;;;;;5012150;28;20021;-71
2022/01/09 11:51:23;;;;;;;23.33;12.90;;;1.30;98.30;;;;;;5016913;28;20037;-71
2022/01/09 11:53:55;;;;;;;20.90;11.93;;;1.30;98.00;;;;;;5012041;28;20029;-72
2022/01/09 11:56:44;;;;;;;25.75;12.82;;;1.20;98.40;;;;;;5017238;28;20013;-71
2022/01/09 11:59:17;;;;;;;23.95;12.68;;;1.10;98.40;;;;;;5014503;28;20502;-71
2022/01/09 12:01:42;;;;;;;24.55;12.23;;;1.10;98.90;;;;;;5012659;28;20025;-71
2022/01/09 12:04:34;;;;;;;21.17;12.27;;;1.00;99.00;;;;;;5016723;28;20079;-72
2022/01/09 12:07:10;;;;;;;26.73;12.73;;;1.00;99.60;;;;;;5008115;28;20482;-71
2022/01/09 12:09:38;;;;;;;28.92;13.98;;;1.10;99.70;;;;;;5011316;28;20109;-70
2022/01/09 12:12:33;;;;;;;21.92;12.27;;;1.20;99.60;;;;;;5015258;28;20022;-71
2022/01/09 12:15:04;;;;;;;24.42;12.35;;;1.30;98.80;;;;;;5016680;28;20470;-71
2022/01/09 12:17:43;;;;;;;24.90;13.73;;;1.70;99.50;;;;;;5011934;28;20041;-71
2022/01/09 12:20:13;;;;;;;20.90;12.20;;;2.10;97.50;;;;;;5016665;28;20088;-71
2022/01/09 12:25:22;;;;;;;21.80;13.10;;;2.60;95.20;;;;;;5015484;28;20036;-72
2022/01/09 12:27:54;;;;;;;22.77;12.07;;;2.70;95.10;;;;;;5012244;28;20079;-71
2022/01/09 12:30:33;;;;;;;24.55;13.40;;;2.70;95.10;;;;;;5014803;28;20025;-71
2022/01/09 12:33:05;;;;;;;24.27;15.20;;;2.50;95.80;;;;;;5015872;28;20072;-71
2022/01/09 12:35:33;;;;;;;21.00;12.90;;;2.60;96.30;;;;;;5012896;28;20684;-71
2022/01/09 12:38:00;;;;;;;24.23;13.90;;;2.60;96.50;;;;;;5015320;28;20083;-71
2022/01/09 12:40:29;;;;;;;26.95;13.93;;;2.60;96.40;;;;;;5016966;28;20013;-71
2022/01/09 12:42:58;;;;;;;24.92;13.75;;;2.70;96.60;;;;;;5014651;28;20108;-71
2022/01/09 12:45:36;;;;;;;21.15;12.90;;;2.60;96.20;;;;;;5016256;28;20443;-71